Flight Track Log - Related Links

Times and Time Zones

All times are in EDT time to prevent confusion due to time zone crossing. See the SKW6278 flight status page for this flight to view local times or setup timezone preferences in your user account.

Time Position Orientation Groundspeed Altitude Reporting Facility
EDT Latitude Longitude Course Direction KTS MPH feet Rate Location/Type
Wed 02:38:06 PM 38.6411 -104.6542 350° North 279 321 11,000  Level Denver Center
Wed 02:39:00 PM 39.1945 -104.5555 38° Northeast  Level FlightAware Approximate
Wed 02:39:08 PM 38.6725 -104.5586 67° East 329 379 12,000  Level Denver Center
Wed 02:40:00 PM 39.2764 -104.5500 North  Level FlightAware Approximate
Wed 02:40:10 PM 38.7644 -104.5661 356° North 332 382 12,000  Level Denver Center
Wed 02:41:00 PM 39.3590 -104.5631 350° North  Level FlightAware Approximate
Wed 02:41:12 PM 38.8519 -104.5756 355° North 321 369 12,000  Level Denver Center
Wed 02:42:00 PM 39.4412 -104.5814 350° North  Level FlightAware Approximate
Wed 02:42:14 PM 38.9461 -104.5797 358° North 330 380 12,000  Level Denver Center
Wed 02:43:00 PM 39.4839 -104.5911 350° North  Level FlightAware Approximate
Wed 02:43:16 PM 39.0364 -104.5844 358° North 323 372 12,000  Level Denver Center
Wed 02:44:18 PM 39.1378 -104.5908 357° North 325 374 12,000  Level Denver Center
Wed 02:45:20 PM 39.2150 -104.5950 358° North 276 318 12,000 -484 Level Denver Center
Wed 02:46:22 PM 39.2856 -104.6236 343° North 243 280 11,000 -1,016 Descending Denver Center
Wed 02:47:24 PM 39.3481 -104.6572 337° Northwest 243 280 9,900 -878 Descending Denver Center
Wed 02:48:25 PM 39.4181 -104.6667 354° North 239 275 9,200 -439 Descending Denver Center
Wed 02:49:27 PM 39.4847 -104.6669 360° North 240 276 9,000 -97 Descending Denver Center
Wed 02:50:29 PM 39.5503 -104.6636 North 236 272 9,000  Level Denver Center
Wed 02:51:31 PM 39.6217 -104.6644 359° North 238 274 9,000 -339 Level Denver Center
Wed 02:52:33 PM 39.6842 -104.6625 North 227 261 8,300 -677 Descending Denver Center

Login

Don't have an account? Register now (free) for customized features, flight alerts, and more!